createdAt,value
2022-12-05T00:00:17.440Z,115.18
2022-12-05T00:01:42.725Z,114.57
2022-12-05T00:03:06.056Z,117.18
2022-12-05T00:04:27.520Z,115.28
2022-12-05T00:05:49.738Z,118.20
2022-12-05T00:07:13.721Z,113.45
2022-12-05T00:08:34.862Z,107.38
2022-12-05T00:09:57.074Z,117.38
2022-12-05T00:11:20.484Z,117.63
2022-12-05T00:12:42.748Z,110.70
2022-12-05T00:14:05.258Z,108.97
2022-12-05T00:15:27.317Z,112.38
2022-12-05T00:18:10.471Z,90.95
2022-12-05T00:19:32.542Z,114.35
2022-12-05T00:20:53.497Z,120.38
2022-12-05T00:22:17.164Z,124.03
2022-12-05T00:23:37.970Z,113.50
2022-12-05T00:24:59.754Z,106.93
2022-12-05T00:26:21.074Z,120.60
2022-12-05T00:27:42.847Z,113.45
2022-12-05T00:29:04.486Z,115.28
2022-12-05T00:30:29.383Z,121.25
2022-12-05T00:31:51.577Z,126.57
2022-12-05T00:34:34.564Z,117.50
2022-12-05T00:35:57.788Z,119.82
2022-12-05T00:37:20.935Z,121.10
2022-12-05T00:38:45.568Z,120.00
2022-12-05T00:40:08.864Z,131.65
2022-12-05T00:41:30.919Z,113.63
2022-12-05T00:42:55.665Z,124.03
2022-12-05T00:44:16.574Z,123.93
2022-12-05T00:45:38.479Z,126.80
2022-12-05T00:46:59.638Z,121.35
2022-12-05T00:48:21.820Z,121.30
2022-12-05T00:49:45.001Z,118.07
2022-12-05T00:51:09.145Z,124.90
2022-12-05T00:52:32.671Z,116.95
2022-12-05T00:53:54.006Z,111.55
2022-12-05T00:55:15.745Z,110.25
2022-12-05T00:57:58.246Z,111.60
2022-12-05T00:59:21.423Z,113.18
2022-12-05T01:00:42.282Z,116.05
2022-12-05T01:02:04.168Z,122.18
2022-12-05T01:04:46.895Z,120.60
2022-12-05T01:06:12.396Z,125.03
2022-12-05T01:07:34.708Z,111.57
2022-12-05T01:08:57.859Z,117.28
2022-12-05T01:10:22.167Z,115.72
2022-12-05T01:11:44.124Z,121.95
2022-12-05T01:13:06.341Z,115.68
2022-12-05T01:14:29.090Z,118.68
2022-12-05T01:15:50.393Z,114.57
2022-12-05T01:17:12.478Z,113.25
2022-12-05T01:18:33.720Z,119.45
2022-12-05T01:19:55.826Z,117.25
2022-12-05T01:21:17.506Z,116.07
2022-12-05T01:22:40.929Z,112.55
2022-12-05T01:24:02.240Z,111.25
2022-12-05T01:25:24.363Z,108.25
2022-12-05T01:28:07.185Z,106.57
2022-12-05T01:29:29.454Z,109.18
2022-12-05T01:30:51.034Z,109.72
2022-12-05T01:32:13.248Z,119.47
2022-12-05T01:33:34.877Z,116.18
2022-12-05T01:34:56.837Z,123.20
2022-12-05T01:37:41.498Z,107.18
2022-12-05T01:39:11.933Z,110.95
2022-12-05T01:40:36.014Z,113.72
2022-12-05T01:41:57.906Z,115.45
2022-12-05T01:43:19.821Z,105.43
2022-12-05T01:46:21.784Z,106.03
2022-12-05T01:47:47.259Z,104.85
2022-12-05T01:49:13.667Z,112.03
2022-12-05T01:50:35.711Z,108.32
2022-12-05T01:52:01.793Z,108.47
2022-12-05T01:53:25.428Z,112.65
2022-12-05T01:54:48.804Z,106.32
2022-12-05T01:56:11.106Z,103.25
2022-12-05T01:57:33.323Z,110.05
2022-12-05T01:58:57.147Z,107.13
2022-12-05T02:00:20.671Z,106.80
2022-12-05T02:01:43.033Z,106.70
2022-12-05T02:03:08.520Z,112.72
2022-12-05T02:04:30.879Z,107.03
2022-12-05T02:05:55.066Z,120.60
2022-12-05T02:07:16.290Z,118.05
2022-12-05T02:08:40.849Z,117.32
2022-12-05T02:10:01.768Z,126.72
2022-12-05T02:11:26.405Z,123.13
2022-12-05T02:12:47.661Z,122.50
2022-12-05T02:14:27.295Z,119.82
2022-12-05T02:15:56.977Z,129.30
2022-12-05T02:17:31.993Z,118.28
2022-12-05T02:19:05.179Z,124.68
2022-12-05T02:20:37.166Z,121.63
2022-12-05T02:22:38.451Z,116.93
2022-12-05T02:24:28.960Z,120.82
2022-12-05T02:26:35.400Z,124.55
2022-12-05T02:28:30.146Z,121.75
2022-12-05T02:30:03.557Z,122.15
2022-12-05T02:31:32.604Z,123.53
2022-12-05T02:33:08.225Z,113.97
2022-12-05T02:34:34.493Z,116.43
2022-12-05T02:36:05.400Z,119.28
2022-12-05T02:37:30.126Z,113.45
2022-12-05T02:39:00.881Z,115.30
2022-12-05T02:40:28.624Z,117.70
2022-12-05T02:41:55.906Z,115.50
2022-12-05T02:43:22.498Z,119.97
2022-12-05T02:44:48.848Z,110.10
2022-12-05T02:46:16.384Z,118.88
2022-12-05T02:47:43.525Z,117.43
2022-12-05T02:49:11.685Z,121.70
2022-12-05T02:50:38.586Z,117.72
2022-12-05T02:52:06.339Z,117.63
2022-12-05T02:53:31.105Z,123.47
2022-12-05T02:54:56.304Z,116.28
2022-12-05T02:56:18.848Z,114.72
2022-12-05T02:57:46.958Z,107.50
2022-12-05T02:59:09.195Z,106.53
2022-12-05T03:00:31.837Z,109.22
2022-12-05T03:01:55.740Z,109.43
2022-12-05T03:03:19.754Z,106.82
2022-12-05T03:04:41.762Z,110.10
2022-12-05T03:07:30.773Z,108.20
2022-12-05T03:08:57.623Z,110.90
2022-12-05T03:10:22.386Z,104.32
2022-12-05T03:11:50.124Z,95.35
2022-12-05T03:13:16.237Z,103.90
2022-12-05T03:14:47.530Z,106.45
2022-12-05T03:16:16.213Z,99.18
2022-12-05T03:17:57.267Z,100.82
2022-12-05T03:19:22.690Z,103.72
2022-12-05T03:20:48.520Z,107.72
2022-12-05T03:22:16.707Z,104.13
2022-12-05T03:23:43.006Z,107.43
2022-12-05T03:25:05.785Z,96.20
2022-12-05T03:26:38.256Z,108.25
2022-12-05T03:29:31.450Z,96.88
2022-12-05T03:30:55.760Z,101.85
2022-12-05T03:32:24.242Z,101.38
2022-12-05T03:33:50.906Z,98.95
2022-12-05T03:35:19.328Z,96.05
2022-12-05T03:36:46.267Z,100.57
2022-12-05T03:38:12.717Z,98.88
2022-12-05T03:39:43.579Z,95.22
2022-12-05T03:41:11.037Z,101.22
2022-12-05T03:42:36.187Z,96.85
2022-12-05T03:44:02.644Z,104.70
2022-12-05T03:45:31.183Z,102.95
2022-12-05T03:46:59.397Z,95.15
2022-12-05T03:48:31.378Z,90.95
2022-12-05T03:49:58.792Z,91.38
2022-12-05T03:51:24.666Z,91.88
2022-12-05T03:53:18.751Z,94.47
2022-12-05T03:54:41.112Z,87.38
2022-12-05T03:56:11.066Z,84.38
2022-12-05T03:57:38.672Z,94.53
2022-12-05T03:59:09.469Z,93.90
2022-12-05T04:00:36.350Z,87.95
2022-12-05T04:02:02.849Z,90.68
2022-12-05T04:03:39.909Z,89.97
2022-12-05T04:05:09.552Z,85.40
2022-12-05T04:06:35.243Z,86.32
2022-12-05T04:08:00.797Z,82.60
2022-12-05T04:09:27.811Z,85.35
2022-12-05T04:10:54.784Z,84.40
2022-12-05T04:12:30.001Z,81.10
2022-12-05T04:13:57.634Z,87.60
2022-12-05T04:15:23.428Z,87.63
2022-12-05T04:17:06.693Z,90.68
2022-12-05T04:18:29.295Z,83.57
2022-12-05T04:20:19.303Z,85.00
2022-12-05T04:21:46.774Z,88.05
2022-12-05T04:23:09.404Z,91.10
2022-12-05T04:24:51.604Z,84.88
2022-12-05T04:26:23.219Z,82.00
2022-12-05T04:27:52.892Z,100.55
2022-12-05T04:29:25.430Z,96.43
2022-12-05T04:30:51.529Z,91.45
2022-12-05T04:32:14.770Z,84.38
2022-12-05T04:33:43.491Z,92.75
2022-12-05T04:35:12.679Z,83.88
2022-12-05T04:36:38.787Z,94.53
2022-12-05T04:38:06.393Z,95.43
2022-12-05T04:39:33.941Z,87.95
2022-12-05T04:41:01.964Z,85.30
2022-12-05T04:42:29.200Z,82.32
2022-12-05T04:43:53.630Z,84.22
2022-12-05T04:45:18.246Z,80.57
2022-12-05T04:46:43.238Z,87.32
2022-12-05T04:48:11.482Z,77.53
2022-12-05T04:49:35.205Z,88.18
2022-12-05T04:50:59.620Z,86.10
2022-12-05T04:52:23.033Z,88.90
2022-12-05T04:53:48.009Z,87.70
2022-12-05T04:55:12.702Z,81.95
2022-12-05T04:56:38.089Z,86.60
2022-12-05T04:58:06.724Z,91.10
2022-12-05T04:59:28.593Z,90.38
2022-12-05T05:00:57.503Z,87.30
2022-12-05T05:02:23.283Z,86.03
2022-12-05T05:03:51.843Z,85.05
2022-12-05T05:05:17.255Z,83.53
2022-12-05T05:06:39.660Z,88.40
2022-12-05T05:08:02.170Z,88.97
2022-12-05T05:09:24.459Z,85.10
2022-12-05T05:10:57.112Z,85.32
2022-12-05T05:12:19.507Z,94.13
2022-12-05T05:13:40.869Z,91.72
2022-12-05T05:15:03.089Z,91.40
2022-12-05T05:16:27.377Z,87.90
2022-12-05T05:17:49.411Z,86.30
2022-12-05T05:19:12.551Z,84.22
2022-12-05T05:20:33.439Z,86.47
2022-12-05T05:21:55.207Z,84.88
2022-12-05T05:23:16.243Z,90.80
2022-12-05T05:24:39.577Z,87.38
2022-12-05T05:26:01.340Z,88.05
2022-12-05T05:27:22.092Z,89.28
2022-12-05T05:28:44.542Z,81.90
2022-12-05T05:30:08.023Z,89.35
2022-12-05T05:31:29.124Z,86.47
2022-12-05T05:32:51.152Z,83.13
2022-12-05T05:34:13.500Z,87.25
2022-12-05T05:35:37.617Z,88.80
2022-12-05T05:36:59.622Z,93.72
2022-12-05T05:38:21.703Z,87.25
2022-12-05T05:39:45.294Z,85.93
2022-12-05T05:41:07.686Z,92.25
2022-12-05T05:42:30.513Z,85.18
2022-12-05T05:43:53.619Z,87.13
2022-12-05T05:45:16.937Z,86.60
2022-12-05T05:46:39.550Z,88.10
2022-12-05T05:48:01.694Z,84.35
2022-12-05T05:49:23.870Z,84.53
2022-12-05T05:50:44.993Z,83.97
2022-12-05T05:52:08.880Z,80.60
2022-12-05T05:53:33.958Z,93.18
2022-12-05T05:54:57.140Z,87.90
2022-12-05T05:56:22.000Z,85.38
2022-12-05T05:57:44.288Z,93.53
2022-12-05T05:59:06.827Z,90.57
2022-12-05T06:00:28.548Z,82.97
2022-12-05T06:01:50.820Z,84.07
2022-12-05T06:03:13.141Z,84.28
2022-12-05T06:04:36.930Z,94.65
2022-12-05T06:05:59.572Z,90.15
2022-12-05T06:07:21.508Z,89.75
2022-12-05T06:08:45.845Z,100.70
2022-12-05T06:10:10.386Z,97.35
2022-12-05T06:11:35.619Z,100.00
2022-12-05T06:13:12.644Z,96.90
2022-12-05T06:14:37.309Z,106.88
2022-12-05T06:16:09.646Z,106.18
2022-12-05T06:17:56.042Z,99.95
2022-12-05T06:19:19.740Z,100.70
2022-12-05T06:20:42.080Z,99.78
2022-12-05T06:22:06.366Z,100.80
2022-12-05T06:23:29.542Z,103.68
2022-12-05T06:24:51.485Z,110.95
2022-12-05T06:26:16.311Z,104.05
2022-12-05T06:27:38.629Z,101.40
2022-12-05T06:29:00.893Z,110.82
2022-12-05T06:30:23.129Z,104.22
2022-12-05T06:31:48.365Z,98.95
2022-12-05T06:33:11.276Z,102.38
2022-12-05T06:34:33.276Z,109.40
2022-12-05T06:36:04.665Z,102.18
2022-12-05T06:37:26.783Z,100.78
2022-12-05T06:38:51.834Z,100.35
2022-12-05T06:40:14.472Z,106.15
2022-12-05T06:41:39.706Z,98.88
2022-12-05T06:43:01.789Z,99.15
2022-12-05T06:44:27.027Z,96.72
2022-12-05T06:45:51.730Z,88.80
2022-12-05T06:47:13.746Z,87.75
2022-12-05T06:48:34.870Z,91.55
2022-12-05T06:49:59.871Z,86.95
2022-12-05T06:51:22.129Z,88.47
2022-12-05T06:52:44.402Z,93.50
2022-12-05T06:55:28.821Z,94.45
2022-12-05T06:56:52.464Z,92.88
2022-12-05T06:58:13.639Z,96.22
2022-12-05T06:59:35.472Z,95.45
2022-12-05T07:01:15.287Z,84.80
2022-12-05T07:02:36.355Z,79.40
2022-12-05T07:04:03.283Z,81.32
2022-12-05T07:05:25.380Z,85.13
2022-12-05T07:06:50.959Z,81.18
2022-12-05T07:08:12.577Z,81.55
2022-12-05T07:09:53.984Z,78.82
2022-12-05T07:11:15.009Z,78.10
2022-12-05T07:12:40.641Z,75.68
2022-12-05T07:14:10.392Z,73.40
2022-12-05T07:15:41.361Z,71.63
2022-12-05T07:17:03.278Z,75.53
2022-12-05T07:18:25.510Z,70.75
2022-12-05T07:19:49.683Z,68.03
2022-12-05T07:21:15.775Z,73.75
2022-12-05T07:22:38.722Z,68.25
2022-12-05T07:24:00.965Z,72.10
2022-12-05T07:25:23.067Z,69.30
2022-12-05T07:26:44.951Z,70.43
2022-12-05T07:28:08.448Z,73.22
2022-12-05T07:29:30.671Z,74.75
2022-12-05T07:31:01.562Z,71.85
2022-12-05T07:32:23.566Z,77.13
2022-12-05T07:33:48.710Z,71.85
2022-12-05T07:35:11.104Z,69.00
2022-12-05T07:36:33.230Z,73.00
2022-12-05T07:37:55.245Z,73.80
2022-12-05T07:40:39.313Z,71.60
2022-12-05T07:42:03.920Z,72.63
2022-12-05T07:43:27.314Z,74.30
2022-12-05T07:44:49.379Z,76.90
2022-12-05T07:46:12.723Z,77.57
2022-12-05T07:47:35.036Z,74.72
2022-12-05T07:50:19.205Z,79.10
2022-12-05T07:51:41.493Z,71.28
2022-12-05T07:53:03.804Z,77.82
2022-12-05T07:54:25.919Z,73.05
2022-12-05T07:57:08.705Z,72.63
2022-12-05T07:58:33.476Z,74.18
2022-12-05T07:59:55.778Z,77.32
2022-12-05T08:01:20.103Z,71.25
2022-12-05T08:02:42.013Z,77.15
2022-12-05T08:05:25.755Z,76.03
2022-12-05T08:06:47.818Z,83.78
2022-12-05T08:08:10.050Z,74.00
2022-12-05T08:09:32.256Z,79.45
2022-12-05T08:10:53.207Z,89.18
2022-12-05T08:12:14.878Z,85.30
2022-12-05T08:13:41.746Z,84.78
2022-12-05T08:15:04.131Z,79.00
2022-12-05T08:16:29.713Z,86.15
2022-12-05T08:17:52.345Z,84.07
2022-12-05T08:19:15.620Z,90.47
2022-12-05T08:20:37.425Z,76.18
2022-12-05T08:22:02.382Z,85.65
2022-12-05T08:23:24.720Z,94.90
2022-12-05T08:24:49.588Z,95.80
2022-12-05T08:26:20.723Z,85.15
2022-12-05T08:27:45.839Z,93.18
2022-12-05T08:29:11.668Z,88.57
2022-12-05T08:30:35.136Z,92.53
2022-12-05T08:31:57.493Z,94.95
2022-12-05T08:33:22.360Z,86.88
2022-12-05T08:34:47.677Z,88.18
2022-12-05T08:36:17.128Z,88.65
2022-12-05T08:37:50.784Z,85.53
2022-12-05T08:39:20.985Z,90.63
2022-12-05T08:43:16.796Z,90.07
2022-12-05T08:44:44.855Z,87.63
2022-12-05T09:15:47.626Z,100.88
2022-12-05T09:17:13.068Z,102.57
2022-12-05T09:18:39.372Z,91.88
2022-12-05T09:20:05.196Z,90.18
2022-12-05T09:21:33.084Z,103.45
2022-12-05T09:23:00.865Z,94.25
2022-12-05T09:24:33.759Z,97.35
2022-12-05T09:25:56.399Z,96.07
2022-12-05T09:27:18.803Z,95.10
2022-12-05T09:28:41.772Z,94.65
2022-12-05T09:30:05.707Z,94.43
2022-12-05T09:31:33.669Z,84.43
2022-12-05T09:32:57.050Z,83.90
2022-12-05T09:34:20.519Z,93.20
2022-12-05T09:35:42.658Z,93.35
2022-12-05T09:37:30.423Z,94.88
2022-12-05T09:39:03.742Z,93.43
2022-12-05T09:40:29.337Z,98.53
2022-12-05T09:42:25.739Z,94.55
2022-12-05T09:43:57.750Z,92.05
2022-12-05T09:45:25.612Z,111.65
2022-12-05T09:46:57.249Z,101.20
2022-12-05T09:48:24.476Z,98.57
2022-12-05T09:49:54.839Z,98.72
2022-12-05T09:51:17.880Z,111.25
2022-12-05T09:52:45.514Z,106.07
2022-12-05T09:54:10.076Z,96.93
2022-12-05T09:55:42.679Z,99.75
2022-12-05T09:57:07.722Z,105.93
2022-12-05T09:58:43.375Z,105.68
2022-12-05T10:00:11.299Z,97.50
2022-12-05T10:01:41.871Z,94.72
2022-12-05T10:03:20.964Z,94.63
2022-12-05T10:05:00.685Z,104.22
2022-12-05T10:06:27.694Z,103.15
2022-12-05T10:07:57.927Z,101.72
2022-12-05T10:09:39.824Z,99.03
2022-12-05T10:11:04.847Z,98.60
2022-12-05T10:12:44.491Z,97.15
2022-12-05T10:14:14.732Z,102.28
2022-12-05T10:15:45.570Z,107.45
2022-12-05T10:17:16.715Z,106.22
2022-12-05T10:18:45.560Z,109.78
2022-12-05T10:20:15.188Z,108.68
2022-12-05T10:21:41.842Z,105.53
2022-12-05T10:23:08.060Z,108.22
2022-12-05T10:24:35.300Z,114.00
2022-12-05T10:26:00.975Z,103.72
2022-12-05T10:27:34.124Z,112.13
2022-12-05T10:29:05.558Z,118.30
2022-12-05T10:30:31.413Z,112.40
2022-12-05T10:32:05.385Z,109.63
2022-12-05T10:33:46.716Z,115.72
2022-12-05T10:35:29.462Z,120.38
2022-12-05T10:36:58.461Z,121.38
2022-12-05T10:38:27.078Z,126.63
2022-12-05T10:39:55.605Z,125.90
2022-12-05T10:41:19.753Z,114.88
2022-12-05T10:43:19.794Z,113.97
2022-12-05T10:44:42.355Z,119.55
2022-12-05T10:46:31.853Z,123.50
2022-12-05T10:47:57.725Z,117.32
2022-12-05T10:49:20.965Z,121.95
2022-12-05T10:50:48.674Z,116.68
2022-12-05T10:52:11.952Z,114.57
2022-12-05T10:53:40.302Z,117.93
2022-12-05T10:55:06.872Z,115.00
2022-12-05T10:56:44.634Z,122.15
2022-12-05T10:58:17.639Z,117.13
2022-12-05T10:59:48.232Z,121.43
2022-12-05T11:01:17.548Z,121.45
2022-12-05T11:02:41.901Z,117.22
2022-12-05T11:04:13.918Z,119.53
2022-12-05T11:05:37.292Z,107.22
2022-12-05T11:07:05.917Z,121.03
2022-12-05T11:08:56.033Z,120.57
2022-12-05T11:10:26.720Z,117.78
2022-12-05T11:12:05.475Z,120.82
2022-12-05T11:13:27.580Z,115.38
2022-12-05T11:15:02.171Z,118.43
2022-12-05T11:16:26.884Z,118.43
2022-12-05T11:17:49.850Z,119.88
2022-12-05T11:19:26.304Z,121.10
2022-12-05T11:20:48.095Z,118.15
2022-12-05T11:23:40.617Z,112.45
2022-12-05T11:25:03.342Z,109.47
2022-12-05T11:26:37.012Z,101.50
2022-12-05T11:28:01.594Z,99.53
2022-12-05T11:29:36.710Z,105.95
2022-12-05T11:31:00.600Z,106.68
2022-12-05T11:32:25.857Z,103.75
2022-12-05T11:34:02.756Z,109.63
2022-12-05T11:35:28.127Z,103.78
2022-12-05T11:36:55.823Z,113.30
2022-12-05T11:38:25.615Z,107.30
2022-12-05T11:39:47.444Z,108.85
2022-12-05T11:43:04.287Z,103.40
2022-12-05T11:44:41.071Z,102.47
2022-12-05T11:46:14.835Z,110.13
2022-12-05T11:47:54.968Z,107.75
2022-12-05T11:49:30.811Z,116.97
2022-12-05T11:51:05.533Z,121.72
2022-12-05T11:52:47.288Z,118.57
2022-12-05T11:56:38.516Z,121.43
2022-12-05T11:58:39.355Z,130.70
2022-12-05T12:00:27.200Z,123.72
2022-12-05T12:02:10.567Z,128.73
2022-12-05T12:03:54.048Z,117.43
2022-12-05T12:05:34.101Z,117.53
2022-12-05T12:07:25.175Z,118.38
2022-12-05T12:09:07.701Z,108.70
2022-12-05T12:10:44.309Z,123.80
2022-12-05T12:12:17.740Z,123.38
2022-12-05T12:13:59.546Z,111.18
2022-12-05T12:15:48.106Z,80.53
2022-12-05T12:17:33.148Z,105.57
2022-12-05T12:19:15.510Z,109.10
2022-12-05T12:20:55.647Z,105.45
2022-12-05T12:22:45.610Z,104.45
2022-12-05T12:24:48.252Z,113.47
2022-12-05T12:29:23.305Z,113.97
2022-12-05T12:31:21.086Z,115.85
2022-12-05T12:32:56.908Z,107.93
2022-12-05T12:34:48.815Z,109.18
2022-12-05T12:36:26.059Z,108.35
2022-12-05T12:38:09.749Z,118.57
2022-12-05T12:41:11.437Z,118.50
2022-12-05T12:43:51.607Z,113.75
2022-12-05T12:45:42.414Z,120.05
2022-12-05T12:47:14.405Z,112.45
2022-12-05T12:48:54.991Z,123.40
2022-12-05T12:50:22.896Z,116.72
2022-12-05T12:51:55.079Z,110.68
2022-12-05T12:53:46.252Z,114.75
2022-12-05T12:55:23.440Z,115.47
2022-12-05T12:56:57.786Z,113.20
2022-12-05T12:58:34.459Z,111.13
2022-12-05T13:00:05.627Z,115.03
2022-12-05T13:01:43.713Z,114.50
2022-12-05T13:03:13.578Z,113.50
2022-12-05T13:04:42.344Z,112.43
2022-12-05T13:06:17.767Z,119.30
2022-12-05T13:07:46.227Z,129.23
2022-12-05T13:09:13.343Z,130.85
2022-12-05T13:10:40.852Z,119.55
2022-12-05T13:12:09.532Z,127.07
2022-12-05T13:13:43.117Z,111.28
2022-12-05T13:15:15.260Z,122.90
2022-12-05T13:16:46.253Z,113.43
2022-12-05T13:18:16.245Z,123.18
2022-12-05T13:19:43.683Z,128.07
2022-12-05T13:21:09.792Z,128.68
2022-12-05T13:22:33.235Z,121.95
2022-12-05T13:23:59.412Z,126.75
2022-12-05T13:25:25.772Z,126.13
2022-12-05T13:26:51.089Z,130.02
2022-12-05T13:28:30.491Z,124.88
2022-12-05T13:29:58.136Z,121.55
2022-12-05T13:31:21.888Z,123.15
2022-12-05T13:32:46.130Z,121.70
2022-12-05T13:34:29.329Z,116.72
2022-12-05T13:36:17.218Z,123.88
2022-12-05T13:38:06.264Z,124.82
2022-12-05T13:39:45.868Z,118.13
2022-12-05T13:41:26.717Z,123.05
2022-12-05T13:43:02.925Z,115.30
2022-12-05T13:44:34.649Z,111.50
2022-12-05T13:46:05.582Z,117.97
2022-12-05T13:47:37.329Z,116.45
2022-12-05T13:49:08.830Z,120.35
2022-12-05T13:50:43.380Z,121.53
2022-12-05T13:52:14.987Z,121.35
2022-12-05T13:53:45.575Z,125.90
2022-12-05T13:55:25.297Z,115.13
2022-12-05T13:56:52.511Z,140.77
2022-12-05T13:58:42.484Z,117.20
2022-12-05T14:00:23.254Z,123.05
2022-12-05T14:01:56.074Z,131.00
2022-12-05T14:03:51.461Z,135.95
2022-12-05T14:05:58.321Z,131.65
2022-12-05T14:07:46.335Z,112.47
2022-12-05T14:09:30.011Z,120.35
2022-12-05T14:11:12.920Z,107.07
2022-12-05T14:12:55.381Z,105.60
2022-12-05T14:15:02.156Z,109.60
2022-12-05T14:16:49.792Z,108.95
2022-12-05T14:18:17.625Z,106.32
2022-12-05T14:19:55.491Z,106.75
2022-12-05T14:21:23.776Z,105.95
2022-12-05T14:23:19.251Z,105.35
2022-12-05T14:24:53.483Z,218.52
2022-12-05T14:26:41.676Z,132.85
2022-12-05T14:28:24.361Z,200.23
2022-12-05T14:30:04.648Z,112.45
2022-12-05T14:32:02.413Z,114.00
2022-12-05T14:33:26.243Z,120.47
2022-12-05T14:35:16.901Z,121.97
2022-12-05T14:36:44.604Z,108.60
2022-12-05T14:40:06.296Z,118.35
2022-12-05T14:41:45.662Z,112.35
2022-12-05T14:43:18.531Z,111.60
2022-12-05T14:44:49.720Z,120.70
2022-12-05T14:46:20.247Z,115.28
2022-12-05T14:47:52.967Z,110.30
2022-12-05T14:49:51.922Z,113.32
2022-12-05T14:51:57.387Z,117.43
2022-12-05T14:53:44.097Z,110.57
2022-12-05T14:55:14.370Z,112.60
2022-12-05T14:56:44.713Z,120.68
2022-12-05T14:58:19.147Z,116.15
2022-12-05T14:59:55.238Z,128.65
2022-12-05T15:01:21.652Z,128.00
2022-12-05T15:02:48.411Z,125.95
2022-12-05T15:04:26.431Z,121.05
2022-12-05T15:05:49.977Z,119.40
2022-12-05T15:07:21.336Z,111.07
2022-12-05T15:08:51.414Z,115.88
2022-12-05T15:10:34.080Z,123.20
2022-12-05T15:13:39.652Z,127.53
2022-12-05T15:24:36.640Z,125.85
2022-12-05T15:58:13.943Z,109.88
2022-12-05T16:50:34.285Z,97.95
2022-12-05T16:55:50.779Z,104.43
2022-12-05T16:57:38.510Z,96.95
2022-12-05T17:00:14.861Z,98.53
2022-12-05T17:10:12.747Z,88.72
2022-12-05T17:14:51.420Z,82.13
2022-12-05T17:18:26.568Z,80.53
2022-12-05T17:19:57.156Z,81.55
2022-12-05T17:21:22.697Z,82.00
2022-12-05T17:22:46.785Z,87.82
2022-12-05T17:24:11.661Z,82.75
2022-12-05T17:25:39.981Z,79.53
2022-12-05T17:27:02.517Z,88.05
2022-12-05T17:28:24.556Z,77.20
2022-12-05T17:30:03.382Z,79.93
2022-12-05T17:31:42.980Z,82.35
2022-12-05T17:33:07.599Z,77.72
2022-12-05T17:35:09.618Z,78.13
2022-12-05T17:36:48.565Z,76.20
2022-12-05T17:42:10.757Z,85.03
2022-12-05T17:43:55.617Z,80.50
2022-12-05T17:45:48.192Z,83.38
2022-12-05T17:47:13.936Z,76.18
2022-12-05T17:48:37.013Z,78.63
2022-12-05T17:50:07.941Z,83.50
2022-12-05T17:51:31.151Z,84.53
2022-12-05T17:53:02.791Z,82.95
2022-12-05T17:54:28.115Z,77.10
2022-12-05T17:55:52.385Z,82.63
2022-12-05T17:57:21.568Z,87.03
2022-12-05T17:58:44.729Z,77.55
2022-12-05T18:00:08.284Z,80.72
2022-12-05T18:01:31.699Z,81.35
2022-12-05T18:02:53.828Z,82.30
2022-12-05T18:04:21.409Z,76.63
2022-12-05T18:05:45.446Z,75.45
2022-12-05T18:07:33.355Z,79.90
2022-12-05T18:08:55.606Z,79.30
2022-12-05T18:10:20.037Z,81.57
2022-12-05T18:11:44.688Z,82.85
2022-12-05T18:13:13.187Z,75.15
2022-12-05T18:14:36.504Z,75.85
2022-12-05T18:16:01.510Z,75.72
2022-12-05T18:17:34.508Z,72.68
2022-12-05T18:19:05.744Z,76.20
2022-12-05T18:20:36.128Z,80.30
2022-12-05T18:21:58.708Z,83.85
2022-12-05T18:23:40.856Z,74.63
2022-12-05T18:25:06.311Z,74.53
2022-12-05T18:26:38.419Z,72.13
2022-12-05T18:28:04.375Z,75.50
2022-12-05T18:29:31.148Z,72.38
2022-12-05T18:31:05.089Z,79.65
2022-12-05T18:32:33.370Z,77.40
2022-12-05T18:34:05.755Z,82.57
2022-12-05T18:37:22.507Z,82.10
2022-12-05T18:38:45.787Z,79.38
2022-12-05T18:40:13.379Z,78.60
2022-12-05T18:41:37.074Z,87.28
2022-12-05T18:42:59.309Z,83.38
2022-12-05T18:44:42.570Z,89.10
2022-12-05T18:46:16.401Z,89.32
2022-12-05T18:47:40.098Z,89.38
2022-12-05T18:49:03.625Z,86.57
2022-12-05T18:50:29.990Z,81.45
2022-12-05T18:51:53.779Z,85.85
2022-12-05T18:53:18.688Z,86.00
2022-12-05T18:54:40.597Z,88.15
2022-12-05T18:56:21.776Z,85.13
2022-12-05T18:57:51.211Z,89.10
2022-12-05T18:59:18.620Z,81.65
2022-12-05T19:00:40.710Z,86.53
2022-12-05T19:05:11.992Z,88.28
2022-12-05T19:06:42.945Z,91.97
2022-12-05T19:08:08.954Z,78.95
2022-12-05T19:09:33.447Z,84.35
2022-12-05T19:11:07.733Z,82.35
2022-12-05T19:12:30.322Z,83.97
2022-12-05T19:13:56.606Z,84.38
2022-12-05T19:15:21.196Z,86.97
2022-12-05T19:16:45.080Z,87.07
2022-12-05T19:18:10.515Z,84.95
2022-12-05T19:19:37.131Z,95.55
2022-12-05T19:21:02.957Z,90.30
2022-12-05T19:22:27.367Z,97.20
2022-12-05T19:23:49.656Z,87.63
2022-12-05T19:25:11.802Z,95.53
2022-12-05T19:26:36.255Z,96.78
2022-12-05T19:27:58.696Z,90.15
2022-12-05T19:29:21.934Z,95.18
2022-12-05T19:30:47.108Z,85.28
2022-12-05T19:32:12.441Z,83.80
2022-12-05T19:33:39.499Z,81.18
2022-12-05T19:35:03.260Z,83.60
2022-12-05T19:36:32.124Z,83.40
2022-12-05T19:37:56.270Z,80.47
2022-12-05T19:39:26.666Z,82.97
2022-12-05T19:40:57.290Z,88.35
2022-12-05T19:42:19.956Z,87.00
2022-12-05T19:43:41.657Z,79.50
2022-12-05T19:46:36.752Z,80.68
2022-12-05T19:48:01.671Z,80.85
2022-12-05T19:49:26.002Z,77.22
2022-12-05T19:50:59.592Z,79.13
2022-12-05T19:52:24.821Z,82.90
2022-12-05T19:53:46.401Z,80.80
2022-12-05T19:55:11.968Z,75.43
2022-12-05T19:56:37.226Z,81.65
2022-12-05T19:57:59.558Z,78.13
2022-12-05T19:59:23.122Z,80.07
2022-12-05T20:00:46.803Z,83.22
2022-12-05T20:02:13.454Z,78.68
2022-12-05T20:03:41.777Z,84.93
2022-12-05T20:05:18.695Z,82.63
2022-12-05T20:06:51.692Z,77.13
2022-12-05T20:08:14.921Z,76.88
2022-12-05T20:09:44.485Z,74.80
2022-12-05T20:11:19.175Z,80.80
2022-12-05T20:12:41.388Z,75.45
2022-12-05T20:14:09.037Z,78.97
2022-12-05T20:15:31.323Z,78.00
2022-12-05T20:16:56.489Z,76.85
2022-12-05T20:18:19.894Z,82.72
2022-12-05T20:19:44.592Z,74.22
2022-12-05T20:21:13.225Z,80.22
2022-12-05T20:22:39.467Z,78.63
2022-12-05T20:24:05.685Z,78.43
2022-12-05T20:25:28.485Z,80.88
2022-12-05T20:26:51.516Z,79.03
2022-12-05T20:28:16.138Z,74.82
2022-12-05T20:29:40.580Z,76.22
2022-12-05T20:31:07.707Z,72.90
2022-12-05T20:32:30.547Z,76.00
2022-12-05T20:33:57.463Z,78.35
2022-12-05T20:35:24.011Z,78.53
2022-12-05T20:36:46.816Z,79.32
2022-12-05T20:38:10.849Z,76.00
2022-12-05T20:39:35.958Z,77.65
2022-12-05T20:41:08.694Z,79.95
2022-12-05T20:42:31.240Z,85.47
2022-12-05T20:43:56.082Z,88.50
2022-12-05T20:45:22.960Z,81.53
2022-12-05T20:46:50.390Z,80.20
2022-12-05T20:48:14.562Z,79.30
2022-12-05T20:49:36.827Z,82.65
2022-12-05T20:51:05.652Z,79.35
2022-12-05T20:52:27.907Z,72.13
2022-12-05T20:53:52.256Z,73.28
2022-12-05T20:55:17.050Z,76.13
2022-12-05T20:56:39.746Z,79.13
2022-12-05T20:58:05.363Z,74.63
2022-12-05T20:59:27.455Z,76.88
2022-12-05T21:00:49.958Z,71.32
2022-12-05T21:02:12.353Z,73.20
2022-12-05T21:03:36.523Z,71.60
2022-12-05T21:04:58.678Z,75.30
2022-12-05T21:06:26.802Z,77.57
2022-12-05T21:07:49.062Z,73.22
2022-12-05T21:09:26.554Z,66.35
2022-12-05T21:10:51.197Z,71.97
2022-12-05T21:12:13.645Z,71.78
2022-12-05T21:13:36.523Z,79.57
2022-12-05T21:14:58.678Z,77.30
2022-12-05T21:16:23.206Z,79.85
2022-12-05T21:17:45.530Z,79.55
2022-12-05T21:20:29.273Z,75.97
2022-12-05T21:21:53.889Z,81.85
2022-12-05T21:23:15.971Z,87.65
2022-12-05T21:24:42.348Z,95.40
2022-12-05T21:26:12.775Z,103.20
2022-12-05T21:27:43.633Z,120.28
2022-12-05T21:29:07.253Z,117.40
2022-12-05T21:30:29.670Z,110.38
2022-12-05T21:31:53.002Z,116.70
2022-12-05T21:33:17.230Z,126.40
2022-12-05T21:34:40.081Z,104.22
2022-12-05T21:36:01.198Z,110.50
2022-12-05T21:37:24.783Z,90.95
2022-12-05T21:38:52.219Z,99.05
2022-12-05T21:40:19.370Z,89.43
2022-12-05T21:41:41.672Z,92.20
2022-12-05T21:44:26.151Z,83.93
2022-12-05T21:45:53.967Z,77.05
2022-12-05T21:47:16.221Z,76.70
2022-12-05T21:48:38.406Z,72.22
2022-12-05T21:50:01.142Z,80.93
2022-12-05T21:51:23.957Z,81.70